TJNR/NRR METAR and TAF weather

Enter ICAO airport designator
Station Type Date Time Source
TJNR METAR 2019/08/25 19:53 UTC NOAA

TJNR 251953Z AUTO 09010G18KT 9SM FEW028 31/24 A3000 RMK AO2 SLP159 T03060239


Station Type Date Time Source
TJNR Decoded METAR 2019/08/25 19:53 UTC NOAA

Station name not available
Aug 25, 2019 - 03:53 PM EDT / 2019.08.25 1953 UTC
Wind: from the E (090 degrees) at 12 MPH (10 KT) gusting to 21 MPH (18 KT):0
Visibility: 9 mile(s):0
Sky conditions: mostly clear
Temperature: 87.1 F (30.6 C)
Heat index: 96.4 F (35.8 C):1
Dew Point: 75.0 F (23.9 C)
Relative Humidity: 67%
Pressure (altimeter): 30 in. Hg (1015 hPa)
ob: TJNR 251953Z AUTO 09010G18KT 9SM FEW028 31/24 A3000 RMK AO2 SLP159 T03060239
cycle: 20

Station Type Date Time Source
TJNR TAF UTC NOAA

Error!

Example: see airport list